Time;durP1;ratioP1;P1;durP2;ratioP2;P2;SDS_P1;SDS_P2;PMS_P1;PMS_P2;Temp;Humidity;BMP_temperature;BMP_pressure;BME280_temperature;BME280_humidity;BME280_pressure;Samples;Min_cycle;Max_cycle;Signal;HPM_P1;HPM_P2
2021/04/11 00:01:25;;;;;;;0.40;0.40;;;3.40;99.90;;;;;;5019601;28;20221;-82
2021/04/11 00:03:51;;;;;;;1.60;0.70;;;3.40;99.90;;;;;;5069854;28;20304;-81
2021/04/11 00:06:17;;;;;;;0.70;0.70;;;3.40;99.90;;;;;;5044219;28;20213;-82
2021/04/11 00:08:43;;;;;;;7.23;6.73;;;3.50;99.90;;;;;;5037505;28;20599;-81
2021/04/11 00:11:09;;;;;;;1.90;1.53;;;3.50;99.90;;;;;;5020314;28;20952;-82
2021/04/11 00:13:38;;;;;;;0.57;0.57;;;3.40;99.90;;;;;;5019583;28;20211;-81
2021/04/11 00:16:05;;;;;;;1.43;0.73;;;3.50;99.90;;;;;;5071184;28;20228;-82
2021/04/11 00:18:31;;;;;;;2.93;1.13;;;3.50;99.90;;;;;;5052239;28;20309;-82
2021/04/11 00:20:58;;;;;;;14.70;1.93;;;3.50;99.90;;;;;;5069111;28;20224;-84
2021/04/11 00:23:26;;;;;;;1.90;1.80;;;3.50;99.90;;;;;;5051992;28;20258;-84
2021/04/11 00:25:52;;;;;;;0.60;0.60;;;3.50;99.90;;;;;;5071993;28;20264;-82
2021/04/11 00:28:19;;;;;;;0.63;0.63;;;3.50;99.90;;;;;;5068639;28;20225;-82
2021/04/11 00:30:45;;;;;;;0.40;0.40;;;3.50;99.90;;;;;;5069360;28;20216;-81
2021/04/11 00:33:30;;;;;;;1.50;0.80;;;3.60;99.90;;;;;;5034969;28;20227;-82
2021/04/11 00:36:02;;;;;;;0.93;0.60;;;3.60;99.90;;;;;;5051660;28;20209;-83
2021/04/11 00:38:29;;;;;;;0.83;0.63;;;3.60;99.90;;;;;;5051225;28;20874;-81
2021/04/11 00:40:59;;;;;;;2.63;1.40;;;3.60;99.90;;;;;;5055488;28;20732;-82
2021/04/11 00:43:26;;;;;;;0.43;0.43;;;3.70;99.90;;;;;;5049866;28;20263;-82
2021/04/11 00:46:11;;;;;;;0.50;0.50;;;3.70;99.90;;;;;;5069865;28;20300;-84
2021/04/11 00:48:37;;;;;;;4.20;1.30;;;3.70;99.90;;;;;;5053521;28;20290;-81
2021/04/11 00:51:09;;;;;;;1.50;1.33;;;3.80;99.90;;;;;;5052018;28;20295;-82
2021/04/11 00:53:35;;;;;;;0.77;0.70;;;3.80;99.90;;;;;;5069984;28;20239;-83
2021/04/11 00:56:03;;;;;;;0.57;0.50;;;3.80;99.90;;;;;;5018149;28;20186;-83
2021/04/11 00:58:30;;;;;;;1.33;1.23;;;3.80;99.90;;;;;;5036254;28;20245;-83
2021/04/11 01:00:56;;;;;;;0.60;0.60;;;3.80;99.90;;;;;;5071384;28;20212;-83
2021/04/11 01:03:25;;;;;;;2.20;1.50;;;3.80;99.90;;;;;;5036457;28;20620;-82
2021/04/11 01:05:51;;;;;;;9.57;1.33;;;3.80;99.90;;;;;;5072685;28;20244;-84
2021/04/11 01:08:24;;;;;;;1.60;0.50;;;3.80;99.90;;;;;;5038497;28;20224;-85
2021/04/11 01:10:53;;;;;;;0.83;0.83;;;3.80;99.90;;;;;;5072576;28;20630;-81
2021/04/11 01:13:21;;;;;;;0.70;0.70;;;3.80;99.90;;;;;;5070893;28;20239;-83
2021/04/11 01:15:47;;;;;;;0.47;0.47;;;3.80;99.90;;;;;;5053995;28;20268;-83
2021/04/11 01:18:14;;;;;;;0.93;0.80;;;3.80;99.90;;;;;;5034425;28;20297;-81
2021/04/11 01:20:39;;;;;;;3.13;0.97;;;3.80;99.90;;;;;;5035486;28;20306;-82
2021/04/11 01:23:28;;;;;;;0.90;0.63;;;3.80;99.90;;;;;;5035779;28;20283;-81
2021/04/11 01:25:58;;;;;;;0.83;0.67;;;3.80;99.90;;;;;;5074428;28;20936;-82
2021/04/11 01:28:33;;;;;;;5.37;0.63;;;3.80;99.90;;;;;;5054889;28;20227;-83
2021/04/11 01:31:05;;;;;;;2.53;0.57;;;3.90;99.90;;;;;;5054776;28;20248;-86
2021/04/11 01:33:32;;;;;;;0.53;0.50;;;3.90;99.90;;;;;;5052490;28;20341;-83
2021/04/11 01:36:00;;;;;;;0.63;0.50;;;3.90;99.90;;;;;;5057492;28;20220;-83
2021/04/11 01:38:27;;;;;;;1.80;0.90;;;3.90;99.90;;;;;;5054506;28;20307;-84
2021/04/11 01:41:14;;;;;;;0.50;0.50;;;3.90;99.90;;;;;;5039453;28;20187;-85
2021/04/11 01:43:41;;;;;;;2.10;0.60;;;3.90;99.90;;;;;;5073402;28;20212;-85
2021/04/11 01:46:08;;;;;;;0.20;0.20;;;3.90;99.90;;;;;;5054454;28;20275;-84
2021/04/11 01:48:35;;;;;;;1.33;1.03;;;3.90;99.90;;;;;;5050685;28;20225;-81
2021/04/11 01:51:03;;;;;;;0.30;0.30;;;3.90;99.90;;;;;;5039844;28;20240;-84
2021/04/11 01:53:30;;;;;;;1.33;1.23;;;3.90;99.90;;;;;;5054105;28;20236;-82
2021/04/11 01:55:56;;;;;;;0.30;0.30;;;3.90;99.90;;;;;;5049428;28;20186;-83
2021/04/11 01:58:23;;;;;;;1.47;1.23;;;3.90;99.90;;;;;;5033984;28;20216;-82
2021/04/11 02:01:21;;;;;;;0.40;0.40;;;3.90;99.90;;;;;;5034899;28;20208;-85
2021/04/11 02:03:59;;;;;;;0.97;0.73;;;3.90;99.90;;;;;;5056635;28;20381;-82
2021/04/11 02:06:26;;;;;;;0.37;0.37;;;3.90;99.90;;;;;;5074518;28;20223;-81
2021/04/11 02:08:56;;;;;;;0.60;0.60;;;3.90;99.90;;;;;;5054164;28;20411;-82
2021/04/11 02:11:23;;;;;;;0.30;0.30;;;4.00;99.90;;;;;;5071452;28;20172;-82
2021/04/11 02:13:49;;;;;;;0.50;0.50;;;4.00;99.90;;;;;;5073073;28;20201;-81
2021/04/11 02:16:20;;;;;;;6.43;1.07;;;4.00;99.90;;;;;;5020234;28;20228;-84
2021/04/11 02:18:46;;;;;;;0.67;0.67;;;4.00;99.90;;;;;;5057835;28;20217;-83
2021/04/11 02:21:19;;;;;;;3.60;1.40;;;4.00;99.90;;;;;;5069534;28;20223;-82
2021/04/11 02:23:46;;;;;;;1.60;1.33;;;4.00;99.90;;;;;;5053376;28;20221;-82
2021/04/11 02:26:13;;;;;;;0.57;0.57;;;3.90;99.90;;;;;;5073019;28;20187;-82
2021/04/11 02:28:40;;;;;;;3.57;0.90;;;4.00;99.90;;;;;;5056516;28;20188;-82
2021/04/11 02:31:17;;;;;;;1.23;1.10;;;4.00;99.90;;;;;;5053607;28;20268;-82
2021/04/11 02:33:48;;;;;;;1.70;0.50;;;4.00;99.90;;;;;;5070409;28;20273;-83
2021/04/11 02:36:20;;;;;;;0.77;0.77;;;4.00;99.90;;;;;;5053510;28;20281;-82
2021/04/11 02:38:49;;;;;;;6.97;1.53;;;3.90;99.90;;;;;;5053759;28;20295;-82
2021/04/11 02:41:16;;;;;;;0.70;0.70;;;3.90;99.90;;;;;;5053580;28;20188;-82
2021/04/11 02:43:42;;;;;;;0.67;0.53;;;3.90;99.90;;;;;;5054625;28;20697;-82
2021/04/11 02:46:09;;;;;;;0.50;0.50;;;3.90;99.90;;;;;;5036355;28;20209;-82
2021/04/11 02:48:34;;;;;;;0.20;0.20;;;3.90;99.90;;;;;;5069875;28;20256;-82
2021/04/11 02:51:02;;;;;;;0.40;0.40;;;3.90;99.90;;;;;;5055551;28;20304;-83
2021/04/11 02:53:32;;;;;;;0.50;0.50;;;3.90;99.90;;;;;;5054253;28;21216;-85
2021/04/11 02:56:00;;;;;;;2.50;0.90;;;3.90;99.90;;;;;;5069720;28;20196;-82
2021/04/11 02:58:26;;;;;;;1.47;1.20;;;3.90;99.90;;;;;;5054871;28;20212;-81
2021/04/11 03:01:05;;;;;;;0.70;0.70;;;4.00;99.90;;;;;;5052526;28;20220;-82
2021/04/11 03:03:32;;;;;;;2.33;1.17;;;3.90;99.90;;;;;;5072000;28;20232;-82
2021/04/11 03:06:04;;;;;;;4.47;2.17;;;3.90;99.90;;;;;;5054170;28;20228;-82
2021/04/11 03:08:34;;;;;;;1.93;1.23;;;3.90;99.90;;;;;;5072343;28;20727;-82
2021/04/11 03:11:23;;;;;;;0.83;0.83;;;3.90;99.90;;;;;;5055330;28;20181;-82
2021/04/11 03:13:50;;;;;;;1.00;1.00;;;3.90;99.90;;;;;;5070559;28;20224;-82
2021/04/11 03:16:15;;;;;;;1.53;1.30;;;3.90;99.90;;;;;;5052626;28;20227;-81
2021/04/11 03:18:43;;;;;;;0.80;0.80;;;3.90;99.90;;;;;;5060634;28;20590;-83
2021/04/11 03:21:09;;;;;;;1.00;0.93;;;3.90;99.90;;;;;;5053247;28;20224;-84
2021/04/11 03:23:37;;;;;;;0.83;0.80;;;3.90;99.90;;;;;;5052914;28;20228;-84
2021/04/11 03:26:11;;;;;;;0.60;0.60;;;3.90;99.90;;;;;;5053930;28;20181;-83
2021/04/11 03:28:43;;;;;;;1.00;0.90;;;3.90;99.90;;;;;;5047592;28;20352;-83
2021/04/11 03:31:21;;;;;;;0.70;0.70;;;4.00;99.90;;;;;;5052058;28;20220;-84
2021/04/11 03:33:51;;;;;;;1.50;1.40;;;4.00;99.90;;;;;;5071545;28;20240;-84
2021/04/11 03:36:19;;;;;;;2.50;1.70;;;4.00;99.90;;;;;;5052773;28;20217;-82
2021/04/11 03:38:46;;;;;;;0.90;0.87;;;4.00;99.90;;;;;;5053285;28;20760;-83
2021/04/11 03:41:14;;;;;;;0.87;0.87;;;4.00;99.90;;;;;;5052261;28;20187;-84
2021/04/11 03:43:52;;;;;;;2.47;1.07;;;4.00;99.90;;;;;;5054190;28;20188;-82
2021/04/11 03:46:25;;;;;;;5.40;0.97;;;4.00;99.90;;;;;;5070235;28;20826;-83
2021/04/11 03:49:04;;;;;;;0.80;0.80;;;4.10;99.90;;;;;;5053885;28;20225;-83
2021/04/11 03:51:32;;;;;;;0.67;0.67;;;4.10;99.90;;;;;;5071792;28;20372;-82
2021/04/11 03:54:19;;;;;;;15.57;1.47;;;4.00;99.90;;;;;;5035395;28;20267;-86
2021/04/11 03:56:55;;;;;;;0.67;0.63;;;4.00;99.90;;;;;;5053888;28;20216;-85
2021/04/11 03:59:27;;;;;;;0.80;0.77;;;4.00;99.90;;;;;;5052991;28;20608;-84
2021/04/11 04:01:55;;;;;;;0.40;0.40;;;4.00;99.90;;;;;;5054417;28;20200;-84
2021/04/11 04:04:23;;;;;;;0.50;0.50;;;4.00;99.90;;;;;;5071375;28;20245;-83
2021/04/11 04:07:08;;;;;;;1.33;0.50;;;3.90;99.90;;;;;;5055054;28;20279;-84
2021/04/11 04:09:34;;;;;;;1.70;0.50;;;3.80;99.90;;;;;;5054479;28;20228;-83
2021/04/11 04:12:18;;;;;;;0.90;0.80;;;3.80;99.90;;;;;;5050602;28;20248;-83
2021/04/11 04:14:51;;;;;;;6.13;1.00;;;3.80;99.90;;;;;;5050408;28;20252;-84
2021/04/11 04:17:25;;;;;;;0.30;0.30;;;3.70;99.90;;;;;;5063683;28;20343;-85
2021/04/11 04:20:12;;;;;;;2.00;0.50;;;3.70;99.90;;;;;;5052822;28;20196;-83
2021/04/11 04:22:53;;;;;;;0.20;0.20;;;3.80;99.90;;;;;;5070701;28;20217;-83
2021/04/11 04:25:56;;;;;;;0.20;0.20;;;3.80;99.90;;;;;;5053195;28;20273;-83
2021/04/11 04:28:58;;;;;;;0.30;0.30;;;3.70;99.90;;;;;;5054024;28;20220;-84
2021/04/11 04:31:38;;;;;;;0.30;0.30;;;3.70;99.90;;;;;;5071974;28;20268;-85
2021/04/11 04:34:20;;;;;;;2.80;1.30;;;3.70;99.90;;;;;;5055764;28;20705;-84
2021/04/11 04:36:53;;;;;;;1.57;0.50;;;3.70;99.90;;;;;;5057619;28;20289;-84
2021/04/11 04:39:39;;;;;;;0.30;0.30;;;3.70;99.90;;;;;;5074226;28;20227;-83
2021/04/11 04:42:21;;;;;;;0.47;0.47;;;3.70;99.90;;;;;;5058966;28;20213;-84
2021/04/11 04:45:05;;;;;;;0.57;0.57;;;3.70;99.90;;;;;;5055807;28;20712;-84
2021/04/11 04:47:44;;;;;;;0.30;0.30;;;3.70;99.90;;;;;;5074335;28;20209;-84
2021/04/11 04:50:48;;;;;;;0.47;0.47;;;3.60;99.90;;;;;;5075313;28;20191;-84
2021/04/11 04:53:28;;;;;;;0.77;0.50;;;3.60;99.90;;;;;;5072312;28;20204;-85
2021/04/11 04:55:57;;;;;;;0.50;0.50;;;3.60;99.90;;;;;;5055591;28;20181;-84
2021/04/11 04:58:30;;;;;;;1.17;0.63;;;3.50;99.90;;;;;;5073536;28;20898;-82
2021/04/11 05:01:01;;;;;;;1.17;0.43;;;3.60;99.90;;;;;;5072189;28;20344;-85
2021/04/11 05:03:41;;;;;;;0.63;0.57;;;3.60;99.90;;;;;;5055174;28;20398;-84
2021/04/11 05:06:18;;;;;;;0.30;0.30;;;3.60;99.90;;;;;;5054252;28;20231;-83
2021/04/11 05:09:17;;;;;;;1.77;0.63;;;3.50;99.90;;;;;;5054353;28;20220;-81
2021/04/11 05:12:29;;;;;;;0.30;0.30;;;3.60;99.90;;;;;;5072558;28;20278;-83
2021/04/11 05:15:01;;;;;;;3.30;0.40;;;3.50;99.90;;;;;;4972075;28;20228;-83
2021/04/11 05:17:38;;;;;;;0.50;0.50;;;3.40;99.90;;;;;;4970362;28;20323;-83
2021/04/11 05:20:14;;;;;;;0.17;0.17;;;3.40;99.90;;;;;;5027786;28;20204;-83
2021/04/11 05:22:50;;;;;;;0.20;0.20;;;3.60;99.90;;;;;;5057014;28;20238;-83
2021/04/11 05:25:22;;;;;;;0.30;0.30;;;3.60;99.90;;;;;;5071754;28;21236;-85
2021/04/11 05:28:02;;;;;;;0.80;0.80;;;3.70;99.90;;;;;;5070720;28;20225;-84
2021/04/11 05:30:41;;;;;;;0.30;0.30;;;3.70;99.90;;;;;;5073164;28;20209;-83
2021/04/11 05:33:10;;;;;;;0.20;0.20;;;3.60;99.90;;;;;;5054474;28;21290;-85
2021/04/11 05:35:37;;;;;;;0.30;0.30;;;3.40;99.90;;;;;;5054438;28;20282;-85
2021/04/11 05:38:20;;;;;;;0.20;0.20;;;3.50;99.90;;;;;;5041357;28;20284;-83
2021/04/11 05:41:07;;;;;;;0.40;0.40;;;3.60;99.90;;;;;;5055303;28;20219;-84
2021/04/11 05:43:36;;;;;;;0.37;0.37;;;3.70;99.90;;;;;;5057034;28;20228;-83
2021/04/11 05:46:18;;;;;;;5.20;0.97;;;3.80;99.90;;;;;;5051147;28;20740;-84
2021/04/11 05:49:02;;;;;;;0.90;0.90;;;3.80;99.90;;;;;;5070756;28;20291;-83
2021/04/11 05:51:36;;;;;;;0.37;0.30;;;3.90;99.90;;;;;;5050094;28;20287;-84
2021/04/11 05:54:20;;;;;;;0.30;0.30;;;3.90;99.90;;;;;;5047873;28;20221;-84
2021/04/11 05:56:50;;;;;;;0.53;0.53;;;4.00;99.90;;;;;;5053770;28;20225;-83
2021/04/11 05:59:39;;;;;;;6.77;3.17;;;3.80;99.90;;;;;;5054116;28;20181;-83
2021/04/11 06:02:09;;;;;;;0.20;0.20;;;3.40;99.90;;;;;;5064384;28;20212;-84
2021/04/11 06:04:53;;;;;;;0.40;0.30;;;3.40;99.90;;;;;;5072493;28;20283;-84
2021/04/11 06:07:25;;;;;;;0.30;0.30;;;3.50;99.90;;;;;;5072582;28;20225;-83
2021/04/11 06:10:08;;;;;;;0.40;0.40;;;3.50;99.90;;;;;;5052618;28;20256;-83
2021/04/11 06:12:43;;;;;;;0.20;0.20;;;3.50;99.90;;;;;;5072190;28;20265;-83
2021/04/11 06:15:26;;;;;;;0.20;0.20;;;3.50;99.90;;;;;;5070941;28;20317;-83
2021/04/11 06:17:54;;;;;;;0.50;0.50;;;3.60;99.90;;;;;;5055552;28;20322;-84
2021/04/11 06:20:22;;;;;;;0.20;0.20;;;3.60;99.90;;;;;;5073687;28;20272;-84
2021/04/11 06:23:15;;;;;;;0.40;0.40;;;3.60;99.90;;;;;;5039992;28;20189;-83
2021/04/11 06:25:49;;;;;;;0.50;0.50;;;3.70;99.90;;;;;;5056918;28;20217;-83
2021/04/11 06:28:27;;;;;;;1.17;1.10;;;3.80;99.90;;;;;;5054878;28;20229;-83
2021/04/11 06:30:56;;;;;;;0.20;0.20;;;3.80;99.90;;;;;;5051773;28;20303;-83
2021/04/11 06:33:44;;;;;;;0.47;0.47;;;3.90;99.90;;;;;;5063461;28;20259;-83
2021/04/11 06:36:24;;;;;;;0.20;0.20;;;3.90;99.90;;;;;;5052292;28;20787;-83
2021/04/11 06:39:03;;;;;;;0.40;0.40;;;4.00;99.90;;;;;;5068605;28;20223;-83
2021/04/11 06:41:53;;;;;;;0.20;0.20;;;4.10;99.90;;;;;;5049793;28;20220;-83
2021/04/11 06:44:31;;;;;;;0.30;0.30;;;4.10;99.90;;;;;;5066115;28;20204;-84
2021/04/11 06:47:15;;;;;;;0.60;0.60;;;4.20;99.90;;;;;;5048147;28;20185;-83
2021/04/11 06:49:41;;;;;;;0.20;0.20;;;4.20;99.90;;;;;;5050099;28;20235;-83
2021/04/11 06:52:51;;;;;;;0.37;0.30;;;4.30;99.90;;;;;;5050932;28;20225;-85
2021/04/11 06:55:43;;;;;;;0.40;0.40;;;4.20;99.90;;;;;;5066022;28;20229;-84
2021/04/11 06:58:27;;;;;;;0.30;0.30;;;4.30;99.90;;;;;;5046302;28;20761;-84
2021/04/11 07:01:29;;;;;;;0.30;0.30;;;4.30;99.90;;;;;;5047911;28;20309;-84
2021/04/11 07:04:26;;;;;;;0.20;0.20;;;4.20;99.90;;;;;;5050929;28;20216;-83
2021/04/11 07:07:14;;;;;;;0.43;0.43;;;4.20;99.90;;;;;;5052800;28;20236;-84
2021/04/11 07:09:48;;;;;;;1.03;0.37;;;4.30;99.90;;;;;;5052529;28;20636;-83
2021/04/11 07:12:51;;;;;;;0.60;0.60;;;4.30;99.90;;;;;;5051009;28;20301;-83
2021/04/11 07:15:45;;;;;;;1.17;0.50;;;4.40;99.90;;;;;;5069291;28;20238;-83
2021/04/11 07:18:10;;;;;;;0.30;0.30;;;4.50;99.90;;;;;;5046081;28;20258;-83
2021/04/11 07:20:42;;;;;;;0.30;0.30;;;4.60;99.90;;;;;;5046402;28;21221;-83
2021/04/11 07:23:26;;;;;;;0.20;0.20;;;4.70;99.90;;;;;;5048495;28;20197;-83
2021/04/11 07:26:27;;;;;;;0.27;0.27;;;4.70;99.90;;;;;;5048297;28;20198;-84
2021/04/11 07:29:02;;;;;;;0.20;0.20;;;4.70;99.90;;;;;;5049017;28;20273;-84
2021/04/11 07:31:53;;;;;;;0.30;0.30;;;4.80;99.90;;;;;;5046640;28;20264;-86
2021/04/11 07:34:45;;;;;;;1.60;0.40;;;4.90;99.90;;;;;;5047234;28;20255;-83
2021/04/11 07:37:16;;;;;;;0.33;0.33;;;4.80;99.90;;;;;;5048326;28;20618;-82
2021/04/11 07:39:45;;;;;;;0.30;0.30;;;4.70;99.90;;;;;;5050982;28;20214;-84
2021/04/11 07:42:34;;;;;;;0.40;0.40;;;4.70;99.90;;;;;;5049068;28;20242;-85
2021/04/11 07:45:36;;;;;;;0.40;0.40;;;4.70;99.90;;;;;;5051822;28;20214;-85
2021/04/11 07:48:20;;;;;;;0.20;0.20;;;4.60;99.90;;;;;;5038104;28;20217;-82
2021/04/11 07:51:16;;;;;;;0.30;0.30;;;4.60;99.90;;;;;;5045646;28;20227;-84
2021/04/11 07:54:21;;;;;;;0.37;0.30;;;4.70;99.90;;;;;;5047907;28;21128;-83
2021/04/11 07:57:05;;;;;;;0.30;0.30;;;4.70;99.90;;;;;;5047442;28;20256;-83
2021/04/11 07:59:55;;;;;;;0.20;0.20;;;4.70;99.90;;;;;;5047224;28;20780;-83
2021/04/11 08:02:41;;;;;;;0.30;0.30;;;4.70;99.90;;;;;;5048857;28;20189;-86
2021/04/11 08:05:15;;;;;;;1.07;0.63;;;4.70;99.90;;;;;;5046490;28;20173;-84
2021/04/11 08:08:17;;;;;;;0.20;0.20;;;4.70;99.90;;;;;;5048438;28;20209;-82
2021/04/11 08:11:02;;;;;;;0.20;0.20;;;4.80;99.90;;;;;;5054090;28;20300;-84
2021/04/11 08:13:56;;;;;;;0.50;0.50;;;4.70;99.90;;;;;;5051959;28;20338;-83
2021/04/11 08:16:43;;;;;;;1.20;0.83;;;4.70;99.90;;;;;;5051029;28;20218;-83
2021/04/11 08:19:41;;;;;;;0.20;0.20;;;4.70;99.90;;;;;;5051852;28;20282;-83
2021/04/11 08:22:13;;;;;;;0.20;0.20;;;4.70;99.90;;;;;;5055076;28;20217;-84
2021/04/11 08:25:11;;;;;;;0.30;0.30;;;4.70;99.90;;;;;;5052586;28;20251;-85
2021/04/11 08:27:59;;;;;;;0.30;0.30;;;4.60;99.90;;;;;;5053550;28;20244;-85
2021/04/11 08:30:32;;;;;;;0.40;0.40;;;4.60;99.90;;;;;;5052462;28;20228;-82
2021/04/11 08:33:12;;;;;;;0.30;0.30;;;4.20;99.90;;;;;;5049631;28;20244;-83
2021/04/11 08:35:47;;;;;;;0.77;0.77;;;4.30;99.90;;;;;;5050941;28;20240;-84
2021/04/11 08:38:21;;;;;;;2.23;0.50;;;4.40;99.90;;;;;;5053640;28;20216;-83
2021/04/11 08:40:59;;;;;;;0.30;0.30;;;4.50;99.90;;;;;;5055933;28;21148;-82
2021/04/11 08:43:46;;;;;;;0.37;0.30;;;4.00;99.90;;;;;;5051667;28;20221;-81
2021/04/11 08:46:45;;;;;;;0.60;0.60;;;3.80;99.90;;;;;;5051286;28;20213;-82
2021/04/11 08:49:25;;;;;;;0.40;0.40;;;3.90;99.90;;;;;;5047202;28;20224;-82
2021/04/11 08:52:12;;;;;;;0.20;0.20;;;4.20;99.90;;;;;;5062799;28;20209;-82
2021/04/11 08:54:49;;;;;;;0.50;0.50;;;4.40;99.90;;;;;;5046412;28;20291;-82
2021/04/11 08:57:53;;;;;;;0.43;0.43;;;4.50;99.90;;;;;;5051549;28;20205;-82
2021/04/11 09:00:35;;;;;;;0.40;0.40;;;4.60;99.90;;;;;;5052329;28;20227;-81
2021/04/11 09:03:25;;;;;;;0.20;0.20;;;4.70;99.90;;;;;;5052006;28;20674;-81
2021/04/11 09:06:14;;;;;;;0.30;0.30;;;4.80;99.90;;;;;;5052734;28;20214;-82
2021/04/11 09:08:48;;;;;;;0.33;0.33;;;5.00;99.90;;;;;;5051080;28;20252;-81
2021/04/11 09:11:41;;;;;;;0.20;0.20;;;5.00;99.90;;;;;;5051068;28;20193;-82
2021/04/11 09:14:07;;;;;;;0.53;0.53;;;5.00;99.90;;;;;;5039850;28;21268;-81
2021/04/11 09:16:36;;;;;;;0.50;0.50;;;5.20;99.90;;;;;;5054995;28;20185;-82
2021/04/11 09:19:33;;;;;;;0.30;0.30;;;5.20;99.90;;;;;;5031180;28;20234;-82
2021/04/11 09:22:17;;;;;;;0.30;0.30;;;5.30;99.90;;;;;;5030591;28;20219;-83
2021/04/11 09:24:58;;;;;;;0.37;0.20;;;5.40;99.90;;;;;;5030446;28;20265;-83
2021/04/11 09:27:55;;;;;;;0.37;0.37;;;5.60;99.90;;;;;;5030152;28;20210;-82
2021/04/11 09:30:46;;;;;;;0.50;0.50;;;5.80;99.90;;;;;;5032027;28;20365;-83
2021/04/11 09:33:26;;;;;;;0.20;0.20;;;5.70;99.90;;;;;;5045659;28;20233;-82
2021/04/11 09:36:15;;;;;;;0.20;0.20;;;5.60;99.90;;;;;;5030107;28;20226;-82
2021/04/11 09:39:02;;;;;;;0.30;0.30;;;5.80;99.90;;;;;;5028624;28;20225;-82
2021/04/11 09:41:54;;;;;;;0.50;0.50;;;5.90;99.90;;;;;;5031167;28;20228;-82
2021/04/11 09:44:42;;;;;;;0.40;0.40;;;6.00;99.90;;;;;;5024146;28;20278;-83
2021/04/11 09:47:20;;;;;;;0.40;0.40;;;6.00;99.90;;;;;;5040457;28;20179;-82
2021/04/11 09:50:03;;;;;;;0.40;0.40;;;6.40;99.90;;;;;;5033932;28;20280;-82
2021/04/11 09:52:35;;;;;;;0.40;0.30;;;6.30;99.90;;;;;;5030914;28;20217;-84
2021/04/11 09:55:23;;;;;;;0.23;0.23;;;6.00;99.90;;;;;;5029153;28;20240;-82
2021/04/11 09:58:36;;;;;;;0.57;0.40;;;6.00;99.90;;;;;;5039812;28;20221;-83
2021/04/11 10:01:11;;;;;;;0.70;0.70;;;6.70;99.90;;;;;;5030288;28;20214;-83
2021/04/11 10:03:53;;;;;;;0.20;0.20;;;6.80;99.90;;;;;;5038647;28;20222;-82
2021/04/11 10:06:36;;;;;;;0.20;0.20;;;6.70;99.90;;;;;;5028761;28;20211;-82
2021/04/11 10:09:43;;;;;;;0.20;0.20;;;7.10;99.90;;;;;;5027483;28;20257;-82
2021/04/11 10:12:28;;;;;;;0.40;0.40;;;7.50;99.90;;;;;;4999580;28;20261;-83
2021/04/11 10:15:20;;;;;;;0.50;0.50;;;7.30;99.90;;;;;;5030108;28;20234;-83
2021/04/11 10:18:09;;;;;;;0.20;0.20;;;6.60;99.90;;;;;;5039788;28;20360;-83
2021/04/11 10:20:53;;;;;;;2.20;1.07;;;6.90;99.90;;;;;;5049279;28;20255;-83
2021/04/11 10:23:36;;;;;;;0.27;0.27;;;6.40;99.90;;;;;;5046279;28;20197;-82
2021/04/11 10:26:12;;;;;;;0.20;0.20;;;7.00;99.90;;;;;;5061918;28;20278;-82
2021/04/11 10:28:40;;;;;;;0.40;0.40;;;7.30;99.90;;;;;;5049458;28;20293;-83
2021/04/11 10:31:45;;;;;;;1.13;1.10;;;7.60;99.90;;;;;;5046039;28;20229;-82
2021/04/11 10:34:29;;;;;;;0.20;0.20;;;7.00;99.90;;;;;;5012828;28;20728;-80
2021/04/11 10:37:19;;;;;;;0.63;0.63;;;6.50;99.90;;;;;;5047345;28;20209;-82
2021/04/11 10:40:00;;;;;;;0.30;0.30;;;7.90;99.90;;;;;;5048594;28;20208;-82
2021/04/11 10:42:29;;;;;;;1.60;0.77;;;7.70;99.90;;;;;;5049383;28;20214;-82
2021/04/11 10:45:10;;;;;;;0.40;0.40;;;7.00;99.90;;;;;;5049975;28;20218;-82
2021/04/11 10:48:13;;;;;;;0.27;0.27;;;6.50;99.90;;;;;;5048060;28;20286;-83
2021/04/11 10:50:52;;;;;;;0.30;0.30;;;7.10;99.90;;;;;;5050337;28;20682;-81
2021/04/11 10:53:30;;;;;;;0.30;0.30;;;7.00;99.90;;;;;;5050599;28;20733;-82
2021/04/11 10:56:27;;;;;;;1.40;0.47;;;7.90;99.90;;;;;;5046594;28;20330;-83
2021/04/11 10:59:08;;;;;;;0.27;0.27;;;7.70;99.90;;;;;;5050100;28;20213;-82
2021/04/11 11:02:18;;;;;;;0.83;0.77;;;8.10;99.90;;;;;;5046526;28;20212;-83
2021/04/11 11:05:21;;;;;;;0.30;0.30;;;8.10;99.90;;;;;;5068043;28;20230;-82
2021/04/11 11:08:02;;;;;;;0.30;0.30;;;8.10;99.90;;;;;;5054566;28;20224;-82
2021/04/11 11:11:06;;;;;;;0.30;0.30;;;8.10;99.90;;;;;;5046086;28;20210;-84
2021/04/11 11:13:43;;;;;;;0.30;0.30;;;7.90;99.90;;;;;;5066636;28;20237;-82
2021/04/11 11:16:24;;;;;;;0.30;0.30;;;7.60;99.90;;;;;;5049105;28;20229;-82
2021/04/11 11:19:12;;;;;;;1.30;0.40;;;7.30;99.90;;;;;;5065494;28;20233;-82
2021/04/11 11:22:03;;;;;;;0.30;0.30;;;7.90;99.90;;;;;;5049961;28;20221;-83
2021/04/11 11:24:55;;;;;;;0.40;0.40;;;7.60;99.90;;;;;;5068298;28;20224;-82
2021/04/11 11:27:40;;;;;;;0.20;0.20;;;6.80;99.90;;;;;;5050154;28;20304;-81
2021/04/11 11:30:28;;;;;;;0.40;0.40;;;7.10;99.90;;;;;;5048600;28;20253;-81
2021/04/11 11:33:09;;;;;;;0.40;0.40;;;6.90;99.90;;;;;;5051272;28;20322;-81
2021/04/11 11:35:50;;;;;;;0.37;0.37;;;7.20;99.90;;;;;;5050651;28;21294;-83
2021/04/11 11:38:37;;;;;;;0.30;0.30;;;7.70;99.90;;;;;;5050656;28;20193;-84
2021/04/11 11:41:26;;;;;;;0.30;0.30;;;7.30;99.90;;;;;;5052584;28;20651;-81
2021/04/11 11:44:15;;;;;;;0.30;0.30;;;7.30;99.90;;;;;;5046116;28;20208;-83
2021/04/11 11:47:09;;;;;;;0.37;0.37;;;8.10;99.90;;;;;;5067736;28;20878;-82
2021/04/11 11:49:52;;;;;;;0.40;0.37;;;7.90;99.90;;;;;;5051532;28;20232;-83
2021/04/11 11:52:27;;;;;;;0.67;0.67;;;7.70;99.90;;;;;;5051996;28;20274;-81
2021/04/11 11:54:59;;;;;;;0.50;0.50;;;8.00;99.90;;;;;;5047634;28;20234;-81
2021/04/11 11:57:43;;;;;;;0.40;0.40;;;7.80;99.90;;;;;;5049391;28;20213;-83
2021/04/11 12:00:20;;;;;;;1.33;1.23;;;8.10;99.90;;;;;;5070146;28;20235;-82
2021/04/11 12:03:18;;;;;;;0.23;0.23;;;8.00;99.90;;;;;;5068903;28;20579;-83
2021/04/11 12:06:08;;;;;;;0.30;0.30;;;7.60;99.90;;;;;;5033737;28;20217;-82
2021/04/11 12:08:52;;;;;;;0.20;0.20;;;6.80;99.90;;;;;;5068382;28;20224;-83
2021/04/11 12:11:26;;;;;;;0.30;0.30;;;7.20;99.90;;;;;;5051885;28;20359;-83
2021/04/11 12:14:00;;;;;;;0.23;0.23;;;7.10;99.90;;;;;;5071069;28;20256;-80
2021/04/11 12:16:35;;;;;;;0.67;0.67;;;7.40;99.90;;;;;;5069656;28;20227;-85
2021/04/11 12:19:19;;;;;;;0.23;0.23;;;7.20;99.90;;;;;;5051181;28;20638;-80
2021/04/11 12:21:51;;;;;;;0.30;0.30;;;7.40;99.90;;;;;;5051336;28;20796;-81
2021/04/11 12:24:31;;;;;;;0.20;0.20;;;7.40;99.90;;;;;;5067371;28;20220;-82
2021/04/11 12:27:01;;;;;;;1.27;0.87;;;7.20;99.90;;;;;;5070657;28;20219;-84
2021/04/11 12:29:30;;;;;;;1.00;0.40;;;7.30;99.90;;;;;;5068063;28;20231;-84
2021/04/11 12:31:59;;;;;;;0.40;0.40;;;7.50;99.90;;;;;;5052935;28;20182;-84
2021/04/11 12:34:43;;;;;;;0.20;0.20;;;7.50;99.90;;;;;;5051011;28;20232;-84
2021/04/11 12:37:11;;;;;;;0.40;0.40;;;7.30;99.90;;;;;;5067406;28;20225;-81
2021/04/11 12:39:37;;;;;;;0.20;0.20;;;7.10;99.90;;;;;;5069388;28;20217;-84
2021/04/11 12:42:35;;;;;;;0.67;0.60;;;6.80;99.90;;;;;;5032870;28;20292;-83
2021/04/11 12:45:19;;;;;;;1.23;0.50;;;7.00;99.90;;;;;;5050264;28;20248;-83
2021/04/11 12:47:59;;;;;;;0.43;0.30;;;7.20;99.90;;;;;;5052518;28;20205;-83
2021/04/11 12:50:46;;;;;;;0.30;0.30;;;7.30;99.90;;;;;;5068441;28;20305;-85
2021/04/11 12:53:29;;;;;;;0.30;0.30;;;7.30;99.90;;;;;;5069772;28;20295;-81
2021/04/11 12:55:58;;;;;;;0.53;0.53;;;7.10;99.90;;;;;;5071544;28;20192;-84
2021/04/11 12:58:37;;;;;;;1.03;1.03;;;7.00;99.90;;;;;;5056319;28;20259;-81
2021/04/11 13:01:21;;;;;;;0.30;0.30;;;7.00;99.90;;;;;;5054869;28;20246;-82
2021/04/11 13:03:53;;;;;;;0.50;0.50;;;6.90;99.90;;;;;;5053890;28;20228;-80
2021/04/11 13:06:33;;;;;;;0.40;0.40;;;6.50;99.90;;;;;;5070835;28;20218;-84
2021/04/11 13:09:26;;;;;;;0.30;0.30;;;6.80;99.90;;;;;;5052364;28;20312;-82
2021/04/11 13:12:04;;;;;;;0.20;0.20;;;6.50;99.90;;;;;;5056060;28;20216;-83
2021/04/11 13:14:38;;;;;;;0.30;0.30;;;7.10;99.90;;;;;;5053884;28;20294;-81
2021/04/11 13:17:16;;;;;;;0.83;0.83;;;7.10;99.90;;;;;;5069923;28;20243;-81
2021/04/11 13:20:05;;;;;;;0.30;0.30;;;6.70;99.90;;;;;;5053722;28;20216;-82
2021/04/11 13:22:50;;;;;;;0.50;0.50;;;7.30;99.90;;;;;;5073623;28;20216;-81
2021/04/11 13:25:33;;;;;;;0.20;0.20;;;7.60;99.90;;;;;;5053957;28;20299;-83
2021/04/11 13:28:03;;;;;;;0.40;0.40;;;6.90;99.90;;;;;;5048975;28;20206;-82
2021/04/11 13:30:34;;;;;;;0.30;0.30;;;7.30;99.90;;;;;;5049896;28;20221;-84
2021/04/11 13:33:04;;;;;;;0.23;0.23;;;7.20;99.90;;;;;;5048923;28;20236;-83
2021/04/11 13:35:42;;;;;;;0.77;0.40;;;7.40;99.90;;;;;;5048510;28;20224;-84
2021/04/11 13:38:25;;;;;;;0.30;0.30;;;7.00;99.90;;;;;;5050180;28;20647;-83
2021/04/11 13:40:54;;;;;;;0.30;0.30;;;6.70;99.90;;;;;;5053772;28;20174;-83
2021/04/11 13:43:57;;;;;;;0.20;0.20;;;6.90;99.90;;;;;;5032187;28;20226;-85
2021/04/11 13:46:43;;;;;;;1.30;0.50;;;7.10;99.90;;;;;;5070682;28;20217;-82
2021/04/11 13:49:24;;;;;;;0.40;0.40;;;7.00;99.90;;;;;;5051813;28;20221;-82
2021/04/11 13:52:03;;;;;;;0.30;0.30;;;7.00;99.90;;;;;;5052270;28;20685;-83
2021/04/11 13:54:59;;;;;;;0.20;0.20;;;7.10;99.90;;;;;;5049352;28;20689;-83
2021/04/11 13:57:43;;;;;;;0.30;0.30;;;7.40;99.90;;;;;;5071640;28;20612;-83
2021/04/11 14:00:14;;;;;;;0.30;0.30;;;7.30;99.90;;;;;;5051815;28;20321;-83